sensor_id;sensor_type;location;lat;lon;timestamp;temperature;humidity
41080;DHT22;26826;50.718;7.114;2023-04-24T00:09:52;11.90;99.90
41080;DHT22;26826;50.718;7.114;2023-04-24T00:19:53;11.90;99.90
41080;DHT22;26826;50.718;7.114;2023-04-24T00:29:58;12.00;99.90
41080;DHT22;26826;50.718;7.114;2023-04-24T00:39:59;12.00;99.90
41080;DHT22;26826;50.718;7.114;2023-04-24T00:50:06;11.90;99.90
41080;DHT22;26826;50.718;7.114;2023-04-24T01:00:07;12.10;99.90
41080;DHT22;26826;50.718;7.114;2023-04-24T01:10:11;12.00;99.90
41080;DHT22;26826;50.718;7.114;2023-04-24T01:20:13;11.90;99.90
41080;DHT22;26826;50.718;7.114;2023-04-24T01:30:14;12.00;99.90
41080;DHT22;26826;50.718;7.114;2023-04-24T01:40:15;11.80;99.90
41080;DHT22;26826;50.718;7.114;2023-04-24T01:50:16;11.50;99.90
41080;DHT22;26826;50.718;7.114;2023-04-24T02:00:16;11.40;99.90
41080;DHT22;26826;50.718;7.114;2023-04-24T02:10:17;11.20;99.90
41080;DHT22;26826;50.718;7.114;2023-04-24T02:20:17;11.00;99.90
41080;DHT22;26826;50.718;7.114;2023-04-24T02:30:18;10.80;99.90
41080;DHT22;26826;50.718;7.114;2023-04-24T02:40:18;10.60;99.90
41080;DHT22;26826;50.718;7.114;2023-04-24T02:50:19;10.20;99.90
41080;DHT22;26826;50.718;7.114;2023-04-24T03:00:20;9.90;99.90
41080;DHT22;26826;50.718;7.114;2023-04-24T03:10:20;9.80;99.90
41080;DHT22;26826;50.718;7.114;2023-04-24T03:20:23;9.60;99.90
41080;DHT22;26826;50.718;7.114;2023-04-24T03:30:23;9.40;99.90
41080;DHT22;26826;50.718;7.114;2023-04-24T03:40:23;9.50;99.90
41080;DHT22;26826;50.718;7.114;2023-04-24T03:50:24;9.30;99.90
41080;DHT22;26826;50.718;7.114;2023-04-24T04:00:26;9.20;99.90
41080;DHT22;26826;50.718;7.114;2023-04-24T04:10:28;9.20;99.90
41080;DHT22;26826;50.718;7.114;2023-04-24T04:20:28;9.10;99.90
41080;DHT22;26826;50.718;7.114;2023-04-24T04:30:29;9.00;99.90
41080;DHT22;26826;50.718;7.114;2023-04-24T04:40:32;8.90;99.90
41080;DHT22;26826;50.718;7.114;2023-04-24T04:50:33;9.00;99.90
41080;DHT22;26826;50.718;7.114;2023-04-24T05:00:33;9.10;99.90
41080;DHT22;26826;50.718;7.114;2023-04-24T05:10:36;9.10;99.90
41080;DHT22;26826;50.718;7.114;2023-04-24T05:20:37;9.30;99.90
41080;DHT22;26826;50.718;7.114;2023-04-24T05:30:37;9.30;99.90
41080;DHT22;26826;50.718;7.114;2023-04-24T05:40:38;9.40;99.90
41080;DHT22;26826;50.718;7.114;2023-04-24T05:50:39;9.50;99.90
41080;DHT22;26826;50.718;7.114;2023-04-24T06:00:40;9.60;99.90
41080;DHT22;26826;50.718;7.114;2023-04-24T06:10:42;9.70;99.90
41080;DHT22;26826;50.718;7.114;2023-04-24T06:20:43;9.70;99.90
41080;DHT22;26826;50.718;7.114;2023-04-24T06:30:43;9.70;99.90
41080;DHT22;26826;50.718;7.114;2023-04-24T06:40:45;10.00;99.90
41080;DHT22;26826;50.718;7.114;2023-04-24T06:50:45;10.20;99.90
41080;DHT22;26826;50.718;7.114;2023-04-24T07:00:47;10.10;99.90
41080;DHT22;26826;50.718;7.114;2023-04-24T07:10:49;9.90;99.90
41080;DHT22;26826;50.718;7.114;2023-04-24T07:20:49;9.30;99.90
41080;DHT22;26826;50.718;7.114;2023-04-24T07:30:50;9.20;99.90
41080;DHT22;26826;50.718;7.114;2023-04-24T07:40:51;9.20;99.90
41080;DHT22;26826;50.718;7.114;2023-04-24T07:50:52;9.20;99.90
41080;DHT22;26826;50.718;7.114;2023-04-24T08:00:53;9.00;99.90
41080;DHT22;26826;50.718;7.114;2023-04-24T08:10:53;8.90;99.90
41080;DHT22;26826;50.718;7.114;2023-04-24T08:20:55;8.90;99.90
41080;DHT22;26826;50.718;7.114;2023-04-24T08:30:56;8.70;99.90
41080;DHT22;26826;50.718;7.114;2023-04-24T08:40:58;8.50;99.90
41080;DHT22;26826;50.718;7.114;2023-04-24T09:01:03;7.70;99.90
41080;DHT22;26826;50.718;7.114;2023-04-24T09:11:04;7.60;99.90
41080;DHT22;26826;50.718;7.114;2023-04-24T09:21:09;7.60;99.90
41080;DHT22;26826;50.718;7.114;2023-04-24T09:31:15;7.80;99.90
41080;DHT22;26826;50.718;7.114;2023-04-24T09:41:18;7.90;99.90
41080;DHT22;26826;50.718;7.114;2023-04-24T09:51:33;8.00;99.90
41080;DHT22;26826;50.718;7.114;2023-04-24T10:01:35;7.90;99.90
41080;DHT22;26826;50.718;7.114;2023-04-24T10:11:44;8.00;99.90
41080;DHT22;26826;50.718;7.114;2023-04-24T10:21:48;8.10;99.90
41080;DHT22;26826;50.718;7.114;2023-04-24T10:31:49;8.40;99.90
41080;DHT22;26826;50.718;7.114;2023-04-24T10:41:49;8.30;99.90
41080;DHT22;26826;50.718;7.114;2023-04-24T10:51:51;8.50;99.90
41080;DHT22;26826;50.718;7.114;2023-04-24T11:01:54;8.50;99.90
41080;DHT22;26826;50.718;7.114;2023-04-24T11:12:05;8.70;99.90
41080;DHT22;26826;50.718;7.114;2023-04-24T11:22:14;8.80;99.90
41080;DHT22;26826;50.718;7.114;2023-04-24T11:32:34;10.70;99.90
41080;DHT22;26826;50.718;7.114;2023-04-24T11:42:40;10.40;99.90
41080;DHT22;26826;50.718;7.114;2023-04-24T11:52:42;10.60;99.90
41080;DHT22;26826;50.718;7.114;2023-04-24T12:02:42;10.70;99.90
41080;DHT22;26826;50.718;7.114;2023-04-24T12:12:45;10.30;99.90
41080;DHT22;26826;50.718;7.114;2023-04-24T12:32:49;11.10;99.90
41080;DHT22;26826;50.718;7.114;2023-04-24T12:42:51;11.70;99.90
41080;DHT22;26826;50.718;7.114;2023-04-24T12:52:52;12.50;99.90
41080;DHT22;26826;50.718;7.114;2023-04-24T13:02:52;12.70;99.90
41080;DHT22;26826;50.718;7.114;2023-04-24T13:12:53;13.50;99.90
41080;DHT22;26826;50.718;7.114;2023-04-24T13:22:54;12.60;99.90
41080;DHT22;26826;50.718;7.114;2023-04-24T13:32:54;12.10;99.90
41080;DHT22;26826;50.718;7.114;2023-04-24T13:42:55;12.40;99.90
41080;DHT22;26826;50.718;7.114;2023-04-24T13:52:55;13.30;99.90
41080;DHT22;26826;50.718;7.114;2023-04-24T14:02:57;14.80;99.90
41080;DHT22;26826;50.718;7.114;2023-04-24T14:12:57;14.70;99.90
41080;DHT22;26826;50.718;7.114;2023-04-24T14:22:58;13.70;99.90
41080;DHT22;26826;50.718;7.114;2023-04-24T14:33:01;12.50;99.90
41080;DHT22;26826;50.718;7.114;2023-04-24T14:43:01;12.80;99.90
41080;DHT22;26826;50.718;7.114;2023-04-24T14:53:02;12.70;99.90
41080;DHT22;26826;50.718;7.114;2023-04-24T15:03:03;13.40;99.90
41080;DHT22;26826;50.718;7.114;2023-04-24T15:13:04;14.80;99.90
41080;DHT22;26826;50.718;7.114;2023-04-24T15:23:05;14.90;99.90
41080;DHT22;26826;50.718;7.114;2023-04-24T15:33:06;15.10;99.90
41080;DHT22;26826;50.718;7.114;2023-04-24T15:43:07;15.40;99.90
41080;DHT22;26826;50.718;7.114;2023-04-24T15:53:07;14.70;99.90
41080;DHT22;26826;50.718;7.114;2023-04-24T16:03:08;14.50;99.90
41080;DHT22;26826;50.718;7.114;2023-04-24T16:13:08;14.00;99.90
41080;DHT22;26826;50.718;7.114;2023-04-24T16:23:09;13.90;99.90
41080;DHT22;26826;50.718;7.114;2023-04-24T16:33:09;13.80;99.90
41080;DHT22;26826;50.718;7.114;2023-04-24T16:43:11;13.40;99.90
41080;DHT22;26826;50.718;7.114;2023-04-24T16:53:11;13.10;99.90
41080;DHT22;26826;50.718;7.114;2023-04-24T17:03:12;12.90;99.90
41080;DHT22;26826;50.718;7.114;2023-04-24T17:13:12;12.80;99.90
41080;DHT22;26826;50.718;7.114;2023-04-24T17:23:13;12.60;99.90
41080;DHT22;26826;50.718;7.114;2023-04-24T17:33:14;12.40;99.90
41080;DHT22;26826;50.718;7.114;2023-04-24T17:43:15;12.20;99.90
41080;DHT22;26826;50.718;7.114;2023-04-24T17:53:17;11.90;99.90
41080;DHT22;26826;50.718;7.114;2023-04-24T18:03:18;11.70;99.90
41080;DHT22;26826;50.718;7.114;2023-04-24T18:13:19;11.60;99.90
41080;DHT22;26826;50.718;7.114;2023-04-24T18:23:19;11.50;99.90
41080;DHT22;26826;50.718;7.114;2023-04-24T18:33:20;11.40;99.90
41080;DHT22;26826;50.718;7.114;2023-04-24T18:43:20;11.20;99.90
41080;DHT22;26826;50.718;7.114;2023-04-24T18:53:21;11.30;99.90
41080;DHT22;26826;50.718;7.114;2023-04-24T19:03:22;11.20;99.90
41080;DHT22;26826;50.718;7.114;2023-04-24T19:13:22;11.10;99.90
41080;DHT22;26826;50.718;7.114;2023-04-24T19:23:23;11.00;99.90
41080;DHT22;26826;50.718;7.114;2023-04-24T19:33:24;11.00;99.90
41080;DHT22;26826;50.718;7.114;2023-04-24T19:43:25;10.80;99.90
41080;DHT22;26826;50.718;7.114;2023-04-24T19:53:26;10.80;99.90
41080;DHT22;26826;50.718;7.114;2023-04-24T20:03:27;10.60;99.90
41080;DHT22;26826;50.718;7.114;2023-04-24T20:13:27;10.50;99.90
41080;DHT22;26826;50.718;7.114;2023-04-24T20:23:28;10.40;99.90
41080;DHT22;26826;50.718;7.114;2023-04-24T20:33:28;10.20;99.90
41080;DHT22;26826;50.718;7.114;2023-04-24T20:43:30;10.10;99.90
41080;DHT22;26826;50.718;7.114;2023-04-24T21:03:34;9.90;99.90
41080;DHT22;26826;50.718;7.114;2023-04-24T21:13:35;9.70;99.90
41080;DHT22;26826;50.718;7.114;2023-04-24T21:23:35;9.60;99.90
41080;DHT22;26826;50.718;7.114;2023-04-24T21:33:36;9.50;99.90
41080;DHT22;26826;50.718;7.114;2023-04-24T21:43:36;9.40;99.90
41080;DHT22;26826;50.718;7.114;2023-04-24T21:53:37;9.20;99.90
41080;DHT22;26826;50.718;7.114;2023-04-24T22:03:38;8.90;99.90
41080;DHT22;26826;50.718;7.114;2023-04-24T22:13:38;8.70;99.90
41080;DHT22;26826;50.718;7.114;2023-04-24T22:23:39;8.60;99.90
41080;DHT22;26826;50.718;7.114;2023-04-24T22:33:40;8.50;99.90
41080;DHT22;26826;50.718;7.114;2023-04-24T22:43:40;8.40;99.90
41080;DHT22;26826;50.718;7.114;2023-04-24T22:53:41;8.30;99.90
41080;DHT22;26826;50.718;7.114;2023-04-24T23:03:41;8.20;99.90
41080;DHT22;26826;50.718;7.114;2023-04-24T23:13:42;8.20;99.90
41080;DHT22;26826;50.718;7.114;2023-04-24T23:23:43;8.20;99.90
41080;DHT22;26826;50.718;7.114;2023-04-24T23:33:44;8.20;99.90
41080;DHT22;26826;50.718;7.114;2023-04-24T23:43:44;8.10;99.90
41080;DHT22;26826;50.718;7.114;2023-04-24T23:53:45;8.10;99.90
